createdAt,value
2018-09-10T00:01:18.798Z,3.90
2018-09-10T00:03:47.587Z,4.23
2018-09-10T00:06:16.273Z,3.63
2018-09-10T00:08:46.251Z,4.20
2018-09-10T00:11:14.925Z,4.30
2018-09-10T00:13:43.571Z,4.40
2018-09-10T00:16:12.230Z,4.03
2018-09-10T00:18:40.875Z,4.80
2018-09-10T00:21:09.525Z,4.70
2018-09-10T00:23:38.320Z,4.07
2018-09-10T00:26:06.962Z,4.03
2018-09-10T00:28:35.655Z,4.03
2018-09-10T00:31:04.399Z,4.13
2018-09-10T00:33:33.124Z,4.00
2018-09-10T00:36:01.813Z,4.00
2018-09-10T00:38:30.471Z,4.30
2018-09-10T00:40:59.131Z,3.93
2018-09-10T00:43:27.787Z,4.00
2018-09-10T00:45:56.507Z,4.00
2018-09-10T00:48:25.176Z,4.20
2018-09-10T00:50:53.809Z,4.00
2018-09-10T00:53:22.513Z,4.80
2018-09-10T00:55:51.186Z,4.07
2018-09-10T00:58:19.879Z,5.90
2018-09-10T01:00:48.614Z,3.93
2018-09-10T01:03:17.303Z,5.00
2018-09-10T01:05:45.968Z,4.90
2018-09-10T01:08:14.644Z,4.77
2018-09-10T01:10:43.285Z,4.33
2018-09-10T01:13:11.963Z,4.97
2018-09-10T01:15:40.608Z,4.03
2018-09-10T01:18:09.365Z,4.97
2018-09-10T01:20:38.028Z,4.60
2018-09-10T01:23:06.731Z,4.43
2018-09-10T01:25:35.436Z,4.80
2018-09-10T01:28:04.132Z,4.27
2018-09-10T01:30:33.277Z,4.53
2018-09-10T01:33:01.940Z,4.40
2018-09-10T01:35:33.245Z,5.30
2018-09-10T01:38:01.959Z,4.67
2018-09-10T01:40:30.658Z,4.67
2018-09-10T01:42:59.284Z,5.03
2018-09-10T01:45:27.922Z,4.73
2018-09-10T01:47:56.592Z,4.80
2018-09-10T01:50:25.270Z,4.73
2018-09-10T01:52:53.920Z,4.97
2018-09-10T01:55:22.581Z,4.37
2018-09-10T01:57:51.246Z,4.50
2018-09-10T02:00:19.940Z,4.53
2018-09-10T02:02:48.598Z,4.33
2018-09-10T02:05:17.276Z,4.60
2018-09-10T02:07:45.911Z,4.63
2018-09-10T02:10:14.692Z,4.13
2018-09-10T02:12:43.359Z,4.57
2018-09-10T02:15:12.007Z,4.73
2018-09-10T02:17:40.668Z,4.80
2018-09-10T02:20:09.427Z,5.23
2018-09-10T02:22:37.979Z,5.23
2018-09-10T02:25:07.095Z,4.40
2018-09-10T02:27:35.794Z,5.10
2018-09-10T02:30:04.990Z,4.80
2018-09-10T02:32:33.660Z,4.50
2018-09-10T02:35:02.328Z,4.17
2018-09-10T02:37:31.005Z,5.47
2018-09-10T02:39:59.685Z,5.10
2018-09-10T02:42:28.336Z,5.00
2018-09-10T02:44:57.012Z,4.63
2018-09-10T02:47:25.712Z,4.30
2018-09-10T02:49:54.492Z,4.73
2018-09-10T02:52:23.183Z,5.50
2018-09-10T02:54:52.770Z,4.90
2018-09-10T02:57:21.428Z,5.43
2018-09-10T02:59:50.113Z,4.80
2018-09-10T03:02:18.794Z,5.37
2018-09-10T03:04:47.428Z,5.73
2018-09-10T03:07:16.640Z,5.50
2018-09-10T03:09:45.640Z,6.23
2018-09-10T03:12:14.806Z,5.77
2018-09-10T03:14:43.502Z,5.17
2018-09-10T03:17:12.280Z,5.30
2018-09-10T03:19:41.101Z,5.37
2018-09-10T03:22:09.772Z,6.00
2018-09-10T03:24:38.491Z,6.27
2018-09-10T03:27:07.150Z,5.73
2018-09-10T03:29:35.795Z,6.20
2018-09-10T03:32:04.540Z,5.60
2018-09-10T03:34:33.228Z,5.77
2018-09-10T03:37:01.872Z,5.40
2018-09-10T03:39:30.572Z,4.90
2018-09-10T03:41:59.275Z,5.77
2018-09-10T03:44:27.962Z,5.33
2018-09-10T03:46:56.665Z,5.97
2018-09-10T03:49:25.366Z,5.77
2018-09-10T03:51:54.033Z,6.90
2018-09-10T03:54:22.759Z,5.37
2018-09-10T03:56:51.421Z,6.10
2018-09-10T03:59:20.411Z,5.90
2018-09-10T04:01:49.411Z,6.70
2018-09-10T04:04:18.260Z,6.53
2018-09-10T04:06:46.944Z,6.40
2018-09-10T04:09:15.620Z,6.23
2018-09-10T04:11:44.284Z,5.97
2018-09-10T04:14:13.100Z,6.10
2018-09-10T04:16:41.808Z,6.03
2018-09-10T04:19:10.484Z,5.30
2018-09-10T04:21:39.144Z,5.83
2018-09-10T04:24:07.846Z,5.57
2018-09-10T04:26:37.199Z,7.10
2018-09-10T04:29:05.871Z,6.50
2018-09-10T04:31:34.530Z,6.33
2018-09-10T04:34:03.204Z,6.80
2018-09-10T04:36:31.864Z,6.10
2018-09-10T04:39:00.732Z,7.20
2018-09-10T04:41:35.556Z,5.80
2018-09-10T04:44:04.653Z,5.80
2018-09-10T04:46:33.948Z,7.10
2018-09-10T04:49:02.697Z,6.67
2018-09-10T04:51:31.509Z,7.10
2018-09-10T04:54:00.309Z,7.00
2018-09-10T04:56:29.089Z,6.33
2018-09-10T04:58:58.488Z,6.23
2018-09-10T05:01:27.156Z,6.60
2018-09-10T05:03:55.859Z,7.20
2018-09-10T05:06:24.865Z,6.23
2018-09-10T05:08:53.535Z,7.13
2018-09-10T05:11:22.192Z,6.30
2018-09-10T05:13:50.861Z,6.73
2018-09-10T05:16:19.537Z,6.10
2018-09-10T05:18:48.281Z,6.70
2018-09-10T05:21:16.951Z,6.67
2018-09-10T05:23:45.651Z,6.50
2018-09-10T05:26:14.376Z,6.50
2018-09-10T05:28:43.063Z,7.00
2018-09-10T05:31:11.717Z,6.70
2018-09-10T05:33:40.371Z,6.93
2018-09-10T05:36:09.040Z,6.97
2018-09-10T05:38:37.710Z,6.20
2018-09-10T05:41:06.386Z,5.47
2018-09-10T05:43:35.061Z,5.93
2018-09-10T05:46:03.745Z,5.50
2018-09-10T05:48:32.415Z,5.70
2018-09-10T05:51:01.073Z,6.53
2018-09-10T05:53:29.764Z,6.00
2018-09-10T05:55:58.402Z,5.83
2018-09-10T05:58:27.081Z,7.17
2018-09-10T06:00:55.773Z,5.83
2018-09-10T06:03:24.464Z,5.20
2018-09-10T06:05:53.131Z,6.07
2018-09-10T06:08:21.848Z,5.23
2018-09-10T06:10:50.540Z,5.73
2018-09-10T06:13:19.215Z,5.80
2018-09-10T06:15:47.885Z,5.80
2018-09-10T06:18:16.542Z,5.30
2018-09-10T06:20:45.213Z,4.73
2018-09-10T06:23:13.970Z,5.17
2018-09-10T06:25:42.704Z,4.90
2018-09-10T06:28:11.410Z,5.13
2018-09-10T06:30:40.102Z,4.90
2018-09-10T06:33:08.896Z,5.10
2018-09-10T06:35:39.722Z,5.43
2018-09-10T06:38:09.005Z,5.37
2018-09-10T06:40:37.640Z,5.37
2018-09-10T06:43:06.504Z,4.87
2018-09-10T06:45:35.158Z,5.40
2018-09-10T06:48:03.878Z,4.87
2018-09-10T06:50:32.557Z,4.60
2018-09-10T06:53:01.242Z,4.63
2018-09-10T06:55:30.007Z,4.43
2018-09-10T06:57:58.783Z,5.10
2018-09-10T07:00:27.423Z,5.13
2018-09-10T07:02:56.077Z,4.77
2018-09-10T07:05:24.692Z,3.90
2018-09-10T07:07:53.442Z,4.83
2018-09-10T07:10:22.106Z,4.07
2018-09-10T07:12:53.043Z,3.97
2018-09-10T07:15:21.937Z,3.80
2018-09-10T07:17:51.417Z,3.60
2018-09-10T07:20:20.656Z,3.30
2018-09-10T07:22:49.804Z,3.77
2018-09-10T07:25:19.344Z,4.10
2018-09-10T07:27:48.156Z,3.60
2018-09-10T07:30:16.859Z,3.73
2018-09-10T07:32:45.589Z,3.73
2018-09-10T07:35:14.288Z,3.90
2018-09-10T07:37:43.025Z,3.37
2018-09-10T07:40:11.717Z,3.30
2018-09-10T07:42:40.461Z,3.63
2018-09-10T07:45:09.183Z,3.70
2018-09-10T07:47:38.144Z,3.80
2018-09-10T07:50:06.796Z,3.50
2018-09-10T07:52:36.527Z,3.60
2018-09-10T07:55:05.364Z,3.53
2018-09-10T07:57:34.028Z,3.43
2018-09-10T08:00:03.039Z,3.50
2018-09-10T08:02:31.728Z,3.13
2018-09-10T08:05:00.771Z,3.93
2018-09-10T08:07:29.449Z,3.47
2018-09-10T08:09:58.276Z,3.80
2018-09-10T08:12:27.317Z,3.60
2018-09-10T08:14:56.849Z,3.37
2018-09-10T08:17:25.785Z,3.50
2018-09-10T08:19:54.978Z,3.10
2018-09-10T08:22:23.993Z,2.83
2018-09-10T08:24:52.696Z,2.60
2018-09-10T08:27:21.393Z,3.77
2018-09-10T08:29:50.091Z,2.73
2018-09-10T08:32:18.765Z,3.40
2018-09-10T08:34:47.596Z,3.30
2018-09-10T08:37:17.425Z,3.20
2018-09-10T08:39:46.123Z,3.90
2018-09-10T08:42:14.811Z,2.83
2018-09-10T08:44:43.476Z,2.70
2018-09-10T08:47:12.145Z,3.33
2018-09-10T08:49:40.969Z,3.17
2018-09-10T08:52:09.612Z,2.40
2018-09-10T08:54:38.526Z,3.30
2018-09-10T08:57:07.094Z,3.17
2018-09-10T08:59:35.798Z,3.10
2018-09-10T09:02:04.476Z,3.47
2018-09-10T09:04:33.169Z,3.03
2018-09-10T09:07:01.834Z,2.90
2018-09-10T09:09:30.484Z,3.40
2018-09-10T09:11:59.277Z,3.00
2018-09-10T09:14:28.100Z,3.60
2018-09-10T09:16:56.806Z,3.97
2018-09-10T09:19:25.703Z,2.80
2018-09-10T09:21:54.348Z,2.70
2018-09-10T09:24:23.020Z,2.80
2018-09-10T09:26:51.793Z,2.30
2018-09-10T09:29:20.450Z,3.10
2018-09-10T09:31:49.138Z,3.37
2018-09-10T09:34:17.831Z,2.70
2018-09-10T09:36:52.014Z,2.80
2018-09-10T09:39:26.188Z,2.73
2018-09-10T09:42:00.213Z,2.93
2018-09-10T09:44:34.314Z,3.17
2018-09-10T09:47:03.028Z,3.27
2018-09-10T09:49:32.758Z,2.40
2018-09-10T09:52:02.212Z,3.60
2018-09-10T09:54:30.937Z,2.57
2018-09-10T09:56:59.723Z,3.00
2018-09-10T09:59:28.685Z,2.30
2018-09-10T10:02:02.762Z,2.60
2018-09-10T10:04:31.513Z,2.87
2018-09-10T10:07:00.242Z,2.70
2018-09-10T10:09:29.223Z,3.03
2018-09-10T10:11:58.722Z,3.30
2018-09-10T10:14:27.572Z,2.67
2018-09-10T10:16:56.271Z,3.23
2018-09-10T10:19:25.051Z,3.20
2018-09-10T10:21:53.776Z,2.80
2018-09-10T10:24:22.589Z,3.00
2018-09-10T10:26:51.806Z,2.33
2018-09-10T10:29:21.163Z,2.43
2018-09-10T10:31:49.816Z,2.90
2018-09-10T10:34:18.500Z,2.97
2018-09-10T10:36:47.956Z,3.03
2018-09-10T10:39:16.796Z,2.87
2018-09-10T10:41:45.421Z,3.00
2018-09-10T10:44:14.485Z,3.20
2018-09-10T10:46:43.154Z,3.37
2018-09-10T10:49:11.900Z,3.60
2018-09-10T10:51:41.309Z,4.67
2018-09-10T10:54:10.140Z,3.30
2018-09-10T10:56:38.771Z,4.50
2018-09-10T10:59:07.473Z,4.03
2018-09-10T11:01:36.153Z,3.57
2018-09-10T11:04:05.009Z,3.77
2018-09-10T11:06:34.202Z,3.43
2018-09-10T11:09:02.972Z,3.33
2018-09-10T11:11:31.712Z,5.20
2018-09-10T11:14:01.015Z,3.17
2018-09-10T11:16:29.721Z,3.30
2018-09-10T11:18:58.415Z,3.40
2018-09-10T11:21:27.084Z,3.63
2018-09-10T11:23:55.764Z,3.10
2018-09-10T11:26:24.690Z,3.70
2018-09-10T11:28:53.608Z,3.03
2018-09-10T11:31:22.291Z,3.93
2018-09-10T11:33:50.990Z,3.23
2018-09-10T11:36:20.169Z,3.50
2018-09-10T11:38:48.890Z,3.83
2018-09-10T11:41:17.616Z,4.27
2018-09-10T11:43:46.360Z,3.70
2018-09-10T11:46:15.069Z,3.93
2018-09-10T11:48:43.756Z,3.60
2018-09-10T11:51:12.420Z,4.83
2018-09-10T11:53:41.132Z,4.10
2018-09-10T11:56:10.190Z,4.40
2018-09-10T11:58:38.952Z,5.40
2018-09-10T12:01:07.621Z,5.00
2018-09-10T12:03:36.402Z,4.30
2018-09-10T12:06:05.064Z,4.17
2018-09-10T12:08:33.756Z,3.87
2018-09-10T12:11:02.415Z,4.33
2018-09-10T12:13:31.168Z,4.37
2018-09-10T12:15:59.880Z,4.33
2018-09-10T12:18:28.593Z,4.67
2018-09-10T12:20:57.350Z,4.17
2018-09-10T12:23:26.032Z,4.83
2018-09-10T12:25:54.743Z,4.57
2018-09-10T12:28:23.519Z,4.80
2018-09-10T12:30:52.221Z,4.57
2018-09-10T12:33:20.932Z,4.93
2018-09-10T12:35:49.678Z,4.73
2018-09-10T12:38:18.382Z,4.53
2018-09-10T12:40:47.125Z,4.60
2018-09-10T12:43:15.809Z,4.40
2018-09-10T12:45:44.500Z,4.53
2018-09-10T12:48:13.421Z,4.40
2018-09-10T12:50:42.113Z,5.23
2018-09-10T12:53:10.790Z,4.47
2018-09-10T12:55:39.455Z,4.30
2018-09-10T12:58:08.181Z,5.33
2018-09-10T13:00:36.863Z,5.30
2018-09-10T13:03:05.576Z,6.20
2018-09-10T13:05:34.246Z,5.80
2018-09-10T13:08:02.880Z,5.67
2018-09-10T13:10:31.654Z,4.80
2018-09-10T13:13:00.279Z,4.70
2018-09-10T13:15:28.952Z,4.70
2018-09-10T13:17:57.632Z,5.90
2018-09-10T13:20:26.364Z,5.90
2018-09-10T13:22:55.040Z,5.50
2018-09-10T13:25:23.781Z,6.60
2018-09-10T13:27:52.501Z,13.83
2018-09-10T13:30:21.294Z,8.57
2018-09-10T13:32:49.994Z,11.93
2018-09-10T13:35:18.756Z,15.43
2018-09-10T13:37:47.416Z,15.53
2018-09-10T13:40:16.136Z,37.83
2018-09-10T13:42:44.800Z,20.77
2018-09-10T13:45:13.508Z,19.40
2018-09-10T13:47:42.232Z,15.53
2018-09-10T13:50:10.955Z,7.63
2018-09-10T13:52:39.612Z,7.97
2018-09-10T13:55:08.261Z,5.47
2018-09-10T13:57:36.912Z,7.97
2018-09-10T14:00:05.731Z,6.50
2018-09-10T14:02:35.045Z,6.13
2018-09-10T14:05:03.813Z,5.70
2018-09-10T14:07:32.483Z,5.17
2018-09-10T14:10:01.220Z,5.13
2018-09-10T14:12:29.945Z,4.57
2018-09-10T14:14:58.596Z,4.43
2018-09-10T14:17:27.354Z,4.30
2018-09-10T14:19:56.300Z,5.00
2018-09-10T14:22:25.622Z,4.37
2018-09-10T14:24:54.302Z,4.40
2018-09-10T14:27:23.039Z,5.77
2018-09-10T14:29:51.824Z,4.33
2018-09-10T14:32:20.499Z,4.83
2018-09-10T14:34:49.859Z,3.87
2018-09-10T14:37:18.527Z,4.37
2018-09-10T14:39:47.220Z,4.03
2018-09-10T14:42:16.009Z,3.60
2018-09-10T14:44:44.621Z,3.50
2018-09-10T14:47:13.328Z,4.70
2018-09-10T14:49:42.213Z,4.33
2018-09-10T14:52:10.919Z,3.60
2018-09-10T14:54:39.646Z,3.17
2018-09-10T14:57:08.412Z,20.47
2018-09-10T14:59:37.096Z,9.03
2018-09-10T15:02:05.814Z,25.13
2018-09-10T15:04:34.510Z,9.93
2018-09-10T15:07:03.179Z,5.93
2018-09-10T15:09:31.904Z,5.33
2018-09-10T15:12:00.739Z,8.57
2018-09-10T15:14:29.520Z,8.30
2018-09-10T15:16:58.118Z,7.77
2018-09-10T15:19:26.788Z,6.10
2018-09-10T15:21:55.552Z,10.50
2018-09-10T15:24:24.286Z,6.90
2018-09-10T15:26:53.152Z,3.73
2018-09-10T15:29:21.816Z,3.43
2018-09-10T15:31:50.576Z,4.20
2018-09-10T15:34:19.262Z,7.73
2018-09-10T15:36:47.937Z,4.90
2018-09-10T15:39:16.686Z,4.77
2018-09-10T15:41:45.351Z,5.30
2018-09-10T15:44:14.064Z,5.20
2018-09-10T15:46:42.741Z,4.73
2018-09-10T15:49:11.486Z,4.40
2018-09-10T15:51:40.178Z,4.73
2018-09-10T15:54:08.839Z,5.60
2018-09-10T15:56:37.482Z,4.70
2018-09-10T15:59:06.211Z,5.23
2018-09-10T16:01:35.028Z,5.03
2018-09-10T16:04:03.688Z,4.53
2018-09-10T16:06:32.378Z,5.13
2018-09-10T16:09:01.032Z,4.97
2018-09-10T16:11:29.681Z,4.87
2018-09-10T16:13:58.997Z,4.00
2018-09-10T16:16:27.968Z,4.40
2018-09-10T16:19:00.216Z,4.03
2018-09-10T16:21:30.015Z,4.07
2018-09-10T16:23:59.280Z,4.10
2018-09-10T16:26:28.044Z,4.43
2018-09-10T16:28:56.780Z,4.23
2018-09-10T16:31:25.433Z,3.93
2018-09-10T16:33:54.111Z,4.80
2018-09-10T16:36:25.019Z,4.33
2018-09-10T16:38:53.709Z,4.10
2018-09-10T16:41:22.409Z,4.60
2018-09-10T16:43:51.190Z,4.00
2018-09-10T16:46:19.858Z,4.63
2018-09-10T16:48:48.652Z,4.23
2018-09-10T16:51:17.307Z,3.90
2018-09-10T16:53:46.028Z,5.20
2018-09-10T16:56:14.723Z,4.90
2018-09-10T16:58:43.376Z,4.23
2018-09-10T17:01:12.105Z,4.30
2018-09-10T17:03:40.984Z,6.00
2018-09-10T17:06:09.647Z,43.00
2018-09-10T17:08:38.408Z,35.67
2018-09-10T17:11:07.130Z,9.97
2018-09-10T17:13:35.914Z,25.07
2018-09-10T17:16:04.591Z,26.50
2018-09-10T17:18:33.276Z,15.30
2018-09-10T17:21:01.946Z,17.37
2018-09-10T17:23:30.672Z,15.70
2018-09-10T17:26:00.127Z,10.10
2018-09-10T17:28:28.788Z,5.93
2018-09-10T17:30:57.616Z,17.17
2018-09-10T17:33:26.330Z,13.30
2018-09-10T17:35:55.049Z,9.77
2018-09-10T17:38:23.724Z,9.63
2018-09-10T17:40:52.428Z,7.83
2018-09-10T17:43:21.178Z,5.43
2018-09-10T17:45:50.122Z,11.23
2018-09-10T17:48:18.792Z,4.20
2018-09-10T17:50:47.975Z,9.70
2018-09-10T17:53:16.754Z,5.00
2018-09-10T17:55:45.582Z,6.47
2018-09-10T17:58:14.328Z,4.73
2018-09-10T18:00:45.913Z,5.30
2018-09-10T18:03:14.700Z,3.90
2018-09-10T18:05:44.161Z,3.50
2018-09-10T18:08:13.381Z,4.50
2018-09-10T18:10:42.538Z,4.33
2018-09-10T18:13:11.242Z,3.97
2018-09-10T18:15:39.909Z,3.20
2018-09-10T18:18:08.594Z,2.80
2018-09-10T18:20:37.321Z,3.93
2018-09-10T18:23:05.992Z,3.70
2018-09-10T18:25:34.692Z,6.13
2018-09-10T18:28:03.430Z,3.70
2018-09-10T18:30:32.104Z,3.57
2018-09-10T18:33:00.892Z,3.63
2018-09-10T18:35:29.572Z,3.63
2018-09-10T18:37:58.294Z,3.43
2018-09-10T18:40:27.046Z,3.67
2018-09-10T18:42:57.318Z,3.00
2018-09-10T18:45:26.718Z,3.23
2018-09-10T18:48:00.496Z,3.87
2018-09-10T18:50:29.350Z,3.40
2018-09-10T18:52:58.490Z,3.90
2018-09-10T18:55:27.820Z,3.97
2018-09-10T18:57:56.777Z,4.27
2018-09-10T19:00:25.572Z,4.53
2018-09-10T19:02:54.273Z,3.30
2018-09-10T19:05:23.038Z,3.17
2018-09-10T19:07:52.316Z,3.80
2018-09-10T19:10:21.233Z,4.37
2018-09-10T19:12:49.961Z,3.10
2018-09-10T19:15:20.735Z,2.70
2018-09-10T19:17:50.405Z,3.53
2018-09-10T19:20:20.594Z,3.27
2018-09-10T19:22:49.306Z,3.00
2018-09-10T19:25:18.412Z,2.90
2018-09-10T19:27:47.358Z,3.23
2018-09-10T19:30:17.365Z,3.03
2018-09-10T19:32:46.362Z,4.80
2018-09-10T19:35:15.002Z,2.83
2018-09-10T19:37:43.749Z,3.40
2018-09-10T19:40:12.408Z,3.30
2018-09-10T19:42:41.102Z,3.30
2018-09-10T19:45:09.775Z,4.10
2018-09-10T19:47:38.455Z,3.23
2018-09-10T19:50:07.492Z,3.50
2018-09-10T19:52:36.187Z,3.17
2018-09-10T19:55:04.996Z,3.13
2018-09-10T19:57:33.754Z,3.00
2018-09-10T20:00:02.539Z,3.23
2018-09-10T20:02:32.041Z,2.93
2018-09-10T20:05:01.329Z,3.00
2018-09-10T20:07:30.072Z,3.43
2018-09-10T20:09:58.767Z,5.20
2018-09-10T20:12:27.448Z,3.50
2018-09-10T20:14:56.197Z,2.80
2018-09-10T20:17:24.916Z,3.57
2018-09-10T20:19:53.618Z,4.37
2018-09-10T20:22:22.416Z,3.50
2018-09-10T20:24:51.139Z,3.83
2018-09-10T20:27:19.813Z,3.80
2018-09-10T20:29:48.499Z,3.73
2018-09-10T20:32:17.206Z,3.37
2018-09-10T20:34:45.864Z,3.47
2018-09-10T20:37:14.540Z,4.07
2018-09-10T20:39:43.348Z,3.83
2018-09-10T20:42:11.948Z,4.40
2018-09-10T20:44:40.696Z,3.20
2018-09-10T20:47:09.442Z,3.20
2018-09-10T20:49:38.148Z,3.70
2018-09-10T20:52:06.972Z,3.37
2018-09-10T20:54:35.597Z,4.80
2018-09-10T20:57:04.275Z,3.43
2018-09-10T20:59:33.018Z,3.53
2018-09-10T21:02:01.710Z,3.80
2018-09-10T21:04:30.382Z,4.90
2018-09-10T21:06:59.060Z,3.57
2018-09-10T21:09:27.821Z,3.80
2018-09-10T21:11:56.548Z,3.97
2018-09-10T21:14:25.244Z,4.10
2018-09-10T21:16:53.901Z,3.47
2018-09-10T21:19:22.552Z,3.30
2018-09-10T21:21:51.191Z,3.07
2018-09-10T21:24:19.835Z,4.00
2018-09-10T21:26:48.591Z,3.20
2018-09-10T21:29:17.276Z,2.90
2018-09-10T21:31:46.254Z,3.37
2018-09-10T21:34:14.924Z,4.00
2018-09-10T21:36:43.601Z,3.80
2018-09-10T21:39:12.287Z,4.40
2018-09-10T21:41:41.088Z,3.60
2018-09-10T21:44:10.204Z,3.60
2018-09-10T21:46:38.860Z,4.90
2018-09-10T21:49:07.798Z,3.00
2018-09-10T21:51:36.815Z,3.87
2018-09-10T21:54:05.476Z,3.97
2018-09-10T21:56:34.145Z,3.73
2018-09-10T21:59:02.860Z,3.50
2018-09-10T22:01:31.570Z,2.83
2018-09-10T22:04:00.282Z,3.30
2018-09-10T22:06:29.017Z,3.20
2018-09-10T22:08:57.688Z,3.70
2018-09-10T22:11:26.389Z,2.77
2018-09-10T22:13:55.101Z,3.40
2018-09-10T22:16:24.342Z,3.10
2018-09-10T22:18:53.044Z,3.17
2018-09-10T22:21:21.860Z,3.60
2018-09-10T22:23:50.544Z,4.30
2018-09-10T22:26:19.273Z,4.00
2018-09-10T22:28:47.957Z,3.77
2018-09-10T22:31:16.656Z,3.80
2018-09-10T22:33:45.352Z,4.03
2018-09-10T22:36:14.124Z,4.20
2018-09-10T22:38:42.892Z,3.90
2018-09-10T22:41:11.781Z,4.03
2018-09-10T22:43:40.448Z,3.43
2018-09-10T22:46:09.102Z,4.00
2018-09-10T22:48:37.759Z,4.07
2018-09-10T22:51:06.484Z,2.70
2018-09-10T22:53:35.157Z,3.73
2018-09-10T22:56:03.796Z,3.50
2018-09-10T22:58:32.446Z,3.43
2018-09-10T23:01:01.123Z,3.90
2018-09-10T23:03:29.792Z,4.90
2018-09-10T23:05:58.682Z,4.07
2018-09-10T23:08:27.477Z,3.83
2018-09-10T23:10:56.107Z,3.70
2018-09-10T23:13:24.845Z,4.43
2018-09-10T23:15:53.668Z,3.90
2018-09-10T23:18:22.388Z,4.10
2018-09-10T23:20:51.048Z,4.00
2018-09-10T23:23:19.760Z,4.80
2018-09-10T23:25:48.436Z,4.93
2018-09-10T23:28:17.487Z,5.10
2018-09-10T23:30:46.136Z,5.60
2018-09-10T23:33:14.816Z,4.20
2018-09-10T23:35:43.541Z,5.20
2018-09-10T23:38:12.252Z,3.70
2018-09-10T23:40:41.192Z,3.87
2018-09-10T23:43:10.087Z,4.60
2018-09-10T23:45:38.773Z,4.33
2018-09-10T23:48:07.303Z,4.10
2018-09-10T23:50:35.991Z,4.70
2018-09-10T23:53:04.714Z,4.00
2018-09-10T23:55:33.414Z,4.20
2018-09-10T23:58:02.081Z,6.40
